createdAt,value
2018-04-06T00:01:54.299Z,99.90
2018-04-06T00:04:21.855Z,99.90
2018-04-06T00:06:49.385Z,99.90
2018-04-06T00:09:16.937Z,99.90
2018-04-06T00:11:44.479Z,99.90
2018-04-06T00:14:12.024Z,99.90
2018-04-06T00:16:39.556Z,99.90
2018-04-06T00:19:07.852Z,99.90
2018-04-06T00:21:35.394Z,99.90
2018-04-06T00:24:02.912Z,99.90
2018-04-06T00:26:30.451Z,99.90
2018-04-06T00:28:57.993Z,99.90
2018-04-06T00:31:25.528Z,99.90
2018-04-06T00:33:53.067Z,99.90
2018-04-06T00:36:21.412Z,99.90
2018-04-06T00:38:48.952Z,99.90
2018-04-06T00:41:16.509Z,99.90
2018-04-06T00:43:44.056Z,99.90
2018-04-06T00:46:11.586Z,99.90
2018-04-06T00:48:39.911Z,99.90
2018-04-06T00:51:07.452Z,99.90
2018-04-06T00:53:46.998Z,99.90
2018-04-06T00:56:14.531Z,99.90
2018-04-06T00:58:42.839Z,99.90
2018-04-06T01:01:10.373Z,99.90
2018-04-06T01:03:38.692Z,99.90
2018-04-06T01:06:06.252Z,99.90
2018-04-06T01:08:33.843Z,99.90
2018-04-06T01:11:01.378Z,99.90
2018-04-06T01:13:28.907Z,99.90
2018-04-06T01:15:56.459Z,99.90
2018-04-06T01:18:23.993Z,99.90
2018-04-06T01:20:52.297Z,99.90
2018-04-06T01:23:19.824Z,99.90
2018-04-06T01:25:47.372Z,99.90
2018-04-06T01:28:14.916Z,99.90
2018-04-06T01:30:43.416Z,99.90
2018-04-06T01:33:10.969Z,99.90
2018-04-06T01:35:38.498Z,99.90
2018-04-06T01:38:06.029Z,99.90
2018-04-06T01:40:34.333Z,99.90
2018-04-06T01:43:01.885Z,99.90
2018-04-06T01:45:29.434Z,99.90
2018-04-06T01:47:56.988Z,99.90
2018-04-06T01:50:25.307Z,99.90
2018-04-06T01:52:52.903Z,99.90
2018-04-06T01:55:20.428Z,99.90
2018-04-06T01:57:47.985Z,99.90
2018-04-06T02:00:15.542Z,99.90
2018-04-06T02:02:43.195Z,99.90
2018-04-06T02:05:10.729Z,99.90
2018-04-06T02:07:38.261Z,99.90
2018-04-06T02:10:05.817Z,99.90
2018-04-06T02:12:34.872Z,99.90
2018-04-06T02:15:02.426Z,99.90
2018-04-06T02:17:29.951Z,99.90
2018-04-06T02:19:58.264Z,99.90
2018-04-06T02:22:25.805Z,99.90
2018-04-06T02:24:53.365Z,99.90
2018-04-06T02:27:20.890Z,99.90
2018-04-06T02:29:48.433Z,99.90
2018-04-06T02:32:15.951Z,99.90
2018-04-06T02:34:43.544Z,99.90
2018-04-06T02:37:11.086Z,99.90
2018-04-06T02:39:38.649Z,99.90
2018-04-06T02:42:06.219Z,99.90
2018-04-06T02:44:33.769Z,99.90
2018-04-06T02:47:01.322Z,99.90
2018-04-06T02:49:28.872Z,99.90
2018-04-06T02:51:56.405Z,99.90
2018-04-06T02:54:24.716Z,99.90
2018-04-06T02:56:52.265Z,99.90
2018-04-06T02:59:19.800Z,99.90
2018-04-06T03:01:48.122Z,99.90
2018-04-06T03:04:15.641Z,99.90
2018-04-06T03:06:43.955Z,99.90
2018-04-06T03:09:11.485Z,99.90
2018-04-06T03:11:39.816Z,99.90
2018-04-06T03:14:07.369Z,99.90
2018-04-06T03:16:34.926Z,99.90
2018-04-06T03:19:02.483Z,99.90
2018-04-06T03:21:30.021Z,99.90
2018-04-06T03:23:58.332Z,99.90
2018-04-06T03:26:25.850Z,99.90
2018-04-06T03:28:53.386Z,99.90
2018-04-06T03:31:20.937Z,99.90
2018-04-06T03:33:48.478Z,99.90
2018-04-06T03:36:16.024Z,99.90
2018-04-06T03:38:43.552Z,99.90
2018-04-06T03:41:11.868Z,99.90
2018-04-06T03:43:39.401Z,99.90
2018-04-06T03:46:07.722Z,99.90
2018-04-06T03:48:35.248Z,99.90
2018-04-06T03:51:02.817Z,99.90
2018-04-06T03:53:30.356Z,99.90
2018-04-06T03:55:57.920Z,99.90
2018-04-06T03:58:25.464Z,99.90
2018-04-06T04:00:53.020Z,99.90
2018-04-06T04:03:20.560Z,99.90
2018-04-06T04:05:48.095Z,99.90
2018-04-06T04:08:16.436Z,99.90
2018-04-06T04:10:43.949Z,99.90
2018-04-06T04:13:12.272Z,99.90
2018-04-06T04:15:39.800Z,99.90
2018-04-06T04:18:07.354Z,99.90
2018-04-06T04:20:34.879Z,99.90
2018-04-06T04:23:03.193Z,99.90
2018-04-06T04:25:30.721Z,99.90
2018-04-06T04:27:59.040Z,99.90
2018-04-06T04:30:26.586Z,99.90
2018-04-06T04:32:54.124Z,99.90
2018-04-06T04:35:21.688Z,99.90
2018-04-06T04:37:49.216Z,99.90
2018-04-06T04:40:17.525Z,99.90
2018-04-06T04:42:45.069Z,99.90
2018-04-06T04:45:12.612Z,99.90
2018-04-06T04:47:46.030Z,99.90
2018-04-06T04:50:13.584Z,99.90
2018-04-06T04:52:41.126Z,99.90
2018-04-06T04:55:09.452Z,99.90
2018-04-06T04:57:37.001Z,99.90
2018-04-06T05:00:04.532Z,99.90
2018-04-06T05:02:32.095Z,99.90
2018-04-06T05:04:59.640Z,99.90
2018-04-06T05:07:27.195Z,99.90
2018-04-06T05:09:54.718Z,99.90
2018-04-06T05:12:23.039Z,99.90
2018-04-06T05:14:50.564Z,99.90
2018-04-06T05:17:19.053Z,99.90
2018-04-06T05:19:46.597Z,99.90
2018-04-06T05:22:14.920Z,99.90
2018-04-06T05:24:42.457Z,99.90
2018-04-06T05:27:10.003Z,99.90
2018-04-06T05:29:39.015Z,99.90
2018-04-06T05:32:06.552Z,99.90
2018-04-06T05:34:34.088Z,99.90
2018-04-06T05:37:01.671Z,99.90
2018-04-06T05:39:29.205Z,99.90
2018-04-06T05:41:56.757Z,99.90
2018-04-06T05:44:24.301Z,99.90
2018-04-06T05:46:52.644Z,99.90
2018-04-06T05:49:20.182Z,99.90
2018-04-06T05:51:47.742Z,99.90
2018-04-06T05:54:15.273Z,99.90
2018-04-06T05:56:42.852Z,99.90
2018-04-06T05:59:10.403Z,99.90
2018-04-06T06:01:37.930Z,99.90
2018-04-06T06:04:06.225Z,99.90
2018-04-06T06:06:33.790Z,99.90
2018-04-06T06:09:01.321Z,99.90
2018-04-06T06:11:29.650Z,99.90
2018-04-06T06:13:57.191Z,99.90
2018-04-06T06:16:24.746Z,99.90
2018-04-06T06:18:52.291Z,99.90
2018-04-06T06:21:20.620Z,99.90
2018-04-06T06:23:48.147Z,99.90
2018-04-06T06:26:15.692Z,99.90
2018-04-06T06:28:43.243Z,99.90
2018-04-06T06:31:11.557Z,99.90
2018-04-06T06:33:39.104Z,99.90
2018-04-06T06:36:07.096Z,99.90
2018-04-06T06:38:34.620Z,99.90
2018-04-06T06:41:02.161Z,99.90
2018-04-06T06:43:30.482Z,99.90
2018-04-06T06:45:58.008Z,99.90
2018-04-06T06:48:25.558Z,99.90
2018-04-06T06:50:53.117Z,99.90
2018-04-06T06:53:20.682Z,99.90
2018-04-06T06:55:48.253Z,99.90
2018-04-06T06:58:16.561Z,99.90
2018-04-06T07:00:44.117Z,99.90
2018-04-06T07:03:11.648Z,99.90
2018-04-06T07:05:39.224Z,99.90
2018-04-06T07:08:06.816Z,99.90
2018-04-06T07:10:34.385Z,99.90
2018-04-06T07:13:01.921Z,99.90
2018-04-06T07:15:29.488Z,99.90
2018-04-06T07:17:57.029Z,99.90
2018-04-06T07:20:25.552Z,99.90
2018-04-06T07:22:53.876Z,99.90
2018-04-06T07:25:21.415Z,99.90
2018-04-06T07:27:49.651Z,99.90
2018-04-06T07:30:17.214Z,99.90
2018-04-06T07:32:44.776Z,99.90
2018-04-06T07:35:12.301Z,99.90
2018-04-06T07:37:39.864Z,99.90
2018-04-06T07:40:07.396Z,99.90
2018-04-06T07:42:35.940Z,99.90
2018-04-06T07:45:03.477Z,99.90
2018-04-06T07:47:31.852Z,99.90
2018-04-06T07:50:00.157Z,99.90
2018-04-06T07:52:27.749Z,99.90
2018-04-06T07:54:55.300Z,99.90
2018-04-06T07:57:22.841Z,99.90
2018-04-06T07:59:51.161Z,95.80
2018-04-06T08:02:18.705Z,95.70
2018-04-06T08:04:46.266Z,86.60
2018-04-06T08:07:13.838Z,79.70
2018-04-06T08:09:41.408Z,66.80
2018-04-06T08:12:08.976Z,62.70
2018-04-06T08:14:36.544Z,65.60
2018-04-06T08:17:04.080Z,59.50
2018-04-06T08:19:31.652Z,61.10
2018-04-06T08:21:59.200Z,65.70
2018-04-06T08:24:26.739Z,74.20
2018-04-06T08:26:54.309Z,79.20
2018-04-06T08:29:21.885Z,75.60
2018-04-06T08:31:49.440Z,70.80
2018-04-06T08:34:16.971Z,65.10
2018-04-06T08:36:44.540Z,60.50
2018-04-06T08:39:12.074Z,60.20
2018-04-06T08:41:40.388Z,65.40
2018-04-06T08:44:07.923Z,65.40
2018-04-06T08:46:35.473Z,70.10
2018-04-06T08:49:03.785Z,65.00
2018-04-06T08:51:31.340Z,65.00
2018-04-06T08:53:58.875Z,68.20
2018-04-06T08:56:26.451Z,66.60
2018-04-06T08:58:53.990Z,64.20
2018-04-06T09:01:21.530Z,68.90
2018-04-06T09:03:49.090Z,64.80
2018-04-06T09:06:16.616Z,63.60
2018-04-06T09:08:44.939Z,63.10
2018-04-06T09:11:12.466Z,63.10
2018-04-06T09:13:40.054Z,59.70
2018-04-06T09:16:07.580Z,59.80
2018-04-06T09:18:35.908Z,61.20
2018-04-06T09:21:03.483Z,61.20
2018-04-06T09:23:31.010Z,55.50
2018-04-06T09:25:58.552Z,59.70
2018-04-06T09:28:26.081Z,57.30
2018-04-06T09:30:54.413Z,57.10
2018-04-06T09:33:21.964Z,57.10
2018-04-06T09:35:49.504Z,55.00
2018-04-06T09:38:17.040Z,55.50
2018-04-06T09:40:45.361Z,55.20
2018-04-06T09:43:12.918Z,55.20
2018-04-06T09:45:40.473Z,54.20
2018-04-06T09:48:07.998Z,48.80
2018-04-06T09:50:36.317Z,48.30
2018-04-06T09:53:03.849Z,48.30
2018-04-06T09:55:32.172Z,46.90
2018-04-06T09:57:59.726Z,46.80
2018-04-06T10:00:32.941Z,44.70
2018-04-06T10:03:03.194Z,44.70
2018-04-06T10:05:31.520Z,45.80
2018-04-06T10:07:59.069Z,45.70
2018-04-06T10:10:26.642Z,45.70
2018-04-06T10:12:54.201Z,45.30
2018-04-06T10:15:21.758Z,47.20
2018-04-06T10:17:49.315Z,45.00
2018-04-06T10:20:16.849Z,43.60
2018-04-06T10:22:45.141Z,46.00
2018-04-06T10:25:13.453Z,45.50
2018-04-06T10:27:41.004Z,45.50
2018-04-06T10:30:08.542Z,41.00
2018-04-06T10:32:36.088Z,41.10
2018-04-06T10:35:03.645Z,39.90
2018-04-06T10:37:31.177Z,40.80
2018-04-06T10:39:58.737Z,40.40
2018-04-06T10:42:26.276Z,39.60
2018-04-06T10:44:53.826Z,39.70
2018-04-06T10:47:22.228Z,39.70
2018-04-06T10:49:49.767Z,39.10
2018-04-06T10:52:17.327Z,41.10
2018-04-06T10:54:44.844Z,42.30
2018-04-06T10:57:12.401Z,40.90
2018-04-06T10:59:39.938Z,41.10
2018-04-06T11:02:08.281Z,41.10
2018-04-06T11:04:35.813Z,41.10
2018-04-06T11:07:03.361Z,43.90
2018-04-06T11:09:30.884Z,45.00
2018-04-06T11:11:59.940Z,46.40
2018-04-06T11:14:27.474Z,47.00
2018-04-06T11:16:55.064Z,47.50
2018-04-06T11:19:22.640Z,47.40
2018-04-06T11:21:50.208Z,46.30
2018-04-06T11:24:17.754Z,48.50
2018-04-06T11:26:45.279Z,45.30
2018-04-06T11:29:12.844Z,47.90
2018-04-06T11:31:40.393Z,48.90
2018-04-06T11:34:07.947Z,47.70
2018-04-06T11:36:35.513Z,46.40
2018-04-06T11:39:03.081Z,47.00
2018-04-06T11:41:30.625Z,47.20
2018-04-06T11:43:58.948Z,48.70
2018-04-06T11:46:26.502Z,48.70
2018-04-06T11:48:54.056Z,49.60
2018-04-06T11:51:22.376Z,48.80
2018-04-06T11:53:49.958Z,48.80
2018-04-06T11:56:17.488Z,49.40
2018-04-06T11:58:45.435Z,50.50
2018-04-06T12:01:12.997Z,48.00
2018-04-06T12:03:40.536Z,49.00
2018-04-06T12:06:08.860Z,50.90
2018-04-06T12:08:36.412Z,50.80
2018-04-06T12:11:03.989Z,50.90
2018-04-06T12:13:31.519Z,52.50
2018-04-06T12:15:59.048Z,50.60
2018-04-06T12:18:27.368Z,49.00
2018-04-06T12:20:54.913Z,48.90
2018-04-06T12:23:22.445Z,51.10
2018-04-06T12:25:50.765Z,48.70
2018-04-06T12:28:18.324Z,48.70
2018-04-06T12:30:45.874Z,50.10
2018-04-06T12:33:13.457Z,51.50
2018-04-06T12:35:41.004Z,52.10
2018-04-06T12:38:08.553Z,51.30
2018-04-06T12:40:36.097Z,51.90
2018-04-06T12:43:04.431Z,52.40
2018-04-06T12:45:31.968Z,52.30
2018-04-06T12:48:00.367Z,52.50
2018-04-06T12:50:27.907Z,52.40
2018-04-06T12:52:55.433Z,50.60
2018-04-06T12:55:23.748Z,51.90
2018-04-06T12:57:51.318Z,51.90
2018-04-06T13:00:18.857Z,52.30
2018-04-06T13:02:46.414Z,51.00
2018-04-06T13:05:14.001Z,50.90
2018-04-06T13:07:41.563Z,51.90
2018-04-06T13:10:09.129Z,53.00
2018-04-06T13:12:36.689Z,51.50
2018-04-06T13:15:04.242Z,51.60
2018-04-06T13:17:31.872Z,53.90
2018-04-06T13:20:00.164Z,53.10
2018-04-06T13:22:27.701Z,53.10
2018-04-06T13:24:55.255Z,51.70
2018-04-06T13:27:22.806Z,51.70
2018-04-06T13:29:51.131Z,53.90
2018-04-06T13:32:18.665Z,53.90
2018-04-06T13:34:47.060Z,52.10
2018-04-06T13:37:14.609Z,50.50
2018-04-06T13:39:42.165Z,52.10
2018-04-06T13:42:09.688Z,52.40
2018-04-06T13:44:38.048Z,53.90
2018-04-06T13:47:05.576Z,53.80
2018-04-06T13:49:33.107Z,54.40
2018-04-06T13:52:00.681Z,52.00
2018-04-06T13:54:28.210Z,51.80
2018-04-06T13:56:56.532Z,51.80
2018-04-06T13:59:24.093Z,51.80
2018-04-06T14:01:51.651Z,51.70
2018-04-06T14:04:19.197Z,52.70
2018-04-06T14:06:46.753Z,52.20
2018-04-06T14:09:14.293Z,51.00
2018-04-06T14:11:41.869Z,50.50
2018-04-06T14:14:09.424Z,49.70
2018-04-06T14:16:36.957Z,50.50
2018-04-06T14:19:05.285Z,50.80
2018-04-06T14:21:32.823Z,50.80
2018-04-06T14:24:00.397Z,52.20
2018-04-06T14:26:27.949Z,52.30
2018-04-06T14:28:55.541Z,52.00
2018-04-06T14:31:23.147Z,51.00
2018-04-06T14:33:51.453Z,51.10
2018-04-06T14:36:19.021Z,51.10
2018-04-06T14:38:46.584Z,53.40
2018-04-06T14:41:14.138Z,52.50
2018-04-06T14:43:41.668Z,54.00
2018-04-06T14:46:10.065Z,51.30
2018-04-06T14:48:37.544Z,51.30
2018-04-06T14:51:05.099Z,50.50
2018-04-06T14:53:32.660Z,49.60
2018-04-06T14:56:00.215Z,50.60
2018-04-06T14:58:27.744Z,51.70
2018-04-06T15:00:56.064Z,51.90
2018-04-06T15:03:23.634Z,51.80
2018-04-06T15:05:51.181Z,51.40
2018-04-06T15:08:18.738Z,51.20
2018-04-06T15:10:46.271Z,49.70
2018-04-06T15:13:14.601Z,50.20
2018-04-06T15:15:42.157Z,50.20
2018-04-06T15:18:09.752Z,49.90
2018-04-06T15:20:38.054Z,50.60
2018-04-06T15:23:05.611Z,50.60
2018-04-06T15:25:33.158Z,50.90
2018-04-06T15:28:01.461Z,49.10
2018-04-06T15:30:29.020Z,49.00
2018-04-06T15:32:56.552Z,50.40
2018-04-06T15:35:24.865Z,50.20
2018-04-06T15:37:52.403Z,50.20
2018-04-06T15:40:19.963Z,50.00
2018-04-06T15:42:47.510Z,50.40
2018-04-06T15:45:15.829Z,52.00
2018-04-06T15:47:43.349Z,52.10
2018-04-06T15:50:11.653Z,51.80
2018-04-06T15:52:39.223Z,51.80
2018-04-06T15:55:06.759Z,52.00
2018-04-06T15:57:34.313Z,51.30
2018-04-06T16:00:02.661Z,51.60
2018-04-06T16:02:30.197Z,51.60
2018-04-06T16:04:57.745Z,52.70
2018-04-06T16:07:25.296Z,51.40
2018-04-06T16:09:52.831Z,52.60
2018-04-06T16:12:20.380Z,51.90
2018-04-06T16:14:48.682Z,53.10
2018-04-06T16:17:16.237Z,53.10
2018-04-06T16:19:43.789Z,52.00
2018-04-06T16:22:11.345Z,52.00
2018-04-06T16:24:39.938Z,53.20
2018-04-06T16:27:10.157Z,53.10
2018-04-06T16:29:37.929Z,53.70
2018-04-06T16:32:05.483Z,52.70
2018-04-06T16:34:33.041Z,51.20
2018-04-06T16:37:00.573Z,52.10
2018-04-06T16:39:28.148Z,52.70
2018-04-06T16:41:56.461Z,51.60
2018-04-06T16:44:24.010Z,51.50
2018-04-06T16:46:51.558Z,51.80
2018-04-06T16:49:19.112Z,52.40
2018-04-06T16:51:46.640Z,52.80
2018-04-06T16:54:14.962Z,53.40
2018-04-06T16:56:42.616Z,53.40
2018-04-06T16:59:10.204Z,53.70
2018-04-06T17:01:38.139Z,53.50
2018-04-06T17:04:05.677Z,53.80
2018-04-06T17:06:33.236Z,54.10
2018-04-06T17:09:01.634Z,54.70
2018-04-06T17:11:29.177Z,54.70
2018-04-06T17:13:56.720Z,55.10
2018-04-06T17:16:25.067Z,56.80
2018-04-06T17:18:52.602Z,56.80
2018-04-06T17:21:20.164Z,57.70
2018-04-06T17:23:47.704Z,57.80
2018-04-06T17:26:15.259Z,58.20
2018-04-06T17:28:42.802Z,58.30
2018-04-06T17:31:11.130Z,60.60
2018-04-06T17:33:38.669Z,60.60
2018-04-06T17:36:06.241Z,61.80
2018-04-06T17:38:33.818Z,62.70
2018-04-06T17:41:01.421Z,64.00
2018-04-06T17:43:29.740Z,67.90
2018-04-06T17:45:57.309Z,67.80
2018-04-06T17:48:25.691Z,71.40
2018-04-06T17:50:53.269Z,71.30
2018-04-06T17:53:20.820Z,74.40
2018-04-06T17:55:48.361Z,76.10
2018-04-06T17:58:15.910Z,79.30
2018-04-06T18:00:43.480Z,82.20
2018-04-06T18:03:11.025Z,84.80
2018-04-06T18:05:38.577Z,88.60
2018-04-06T18:08:06.151Z,90.10
2018-04-06T18:10:33.717Z,92.10
2018-04-06T18:13:01.296Z,93.30
2018-04-06T18:15:28.857Z,95.40
2018-04-06T18:17:56.415Z,97.00
2018-04-06T18:20:23.969Z,98.00
2018-04-06T18:22:51.540Z,99.00
2018-04-06T18:25:19.085Z,99.50
2018-04-06T18:27:46.636Z,99.90
2018-04-06T18:30:14.196Z,99.90
2018-04-06T18:32:41.784Z,99.90
2018-04-06T18:35:09.340Z,99.90
2018-04-06T18:37:36.923Z,99.90
2018-04-06T18:40:04.467Z,99.90
2018-04-06T18:42:32.037Z,99.90
2018-04-06T18:44:59.602Z,99.90
2018-04-06T18:47:27.926Z,99.90
2018-04-06T18:49:55.464Z,99.90
2018-04-06T18:52:23.785Z,99.90
2018-04-06T18:54:51.357Z,99.90
2018-04-06T18:57:18.917Z,99.90
2018-04-06T18:59:46.501Z,99.90
2018-04-06T19:02:14.050Z,99.90
2018-04-06T19:04:41.610Z,99.90
2018-04-06T19:07:09.158Z,99.90
2018-04-06T19:09:36.747Z,99.90
2018-04-06T19:12:05.058Z,99.90
2018-04-06T19:14:32.645Z,99.90
2018-04-06T19:17:00.197Z,99.90
2018-04-06T19:19:27.771Z,99.90
2018-04-06T19:21:55.321Z,99.90
2018-04-06T19:24:22.881Z,99.90
2018-04-06T19:26:50.511Z,99.90
2018-04-06T19:29:18.119Z,99.90
2018-04-06T19:31:45.660Z,99.90
2018-04-06T19:34:13.205Z,99.90
2018-04-06T19:36:40.769Z,99.90
2018-04-06T19:39:08.341Z,99.90
2018-04-06T19:41:35.909Z,99.90
2018-04-06T19:44:03.444Z,99.90
2018-04-06T19:46:30.995Z,99.90
2018-04-06T19:48:58.536Z,99.90
2018-04-06T19:51:27.880Z,99.90
2018-04-06T19:53:55.448Z,99.90
2018-04-06T19:56:23.061Z,99.90
2018-04-06T19:58:51.392Z,99.90
2018-04-06T20:01:18.921Z,99.90
2018-04-06T20:03:46.485Z,99.90
2018-04-06T20:06:14.061Z,99.90
2018-04-06T20:08:41.598Z,99.90
2018-04-06T20:11:09.148Z,99.90
2018-04-06T20:13:36.682Z,99.90
2018-04-06T20:16:05.008Z,99.90
2018-04-06T20:18:32.596Z,99.90
2018-04-06T20:21:00.127Z,99.90
2018-04-06T20:23:27.705Z,99.90
2018-04-06T20:25:55.229Z,99.90
2018-04-06T20:28:22.820Z,99.90
2018-04-06T20:30:50.366Z,99.90
2018-04-06T20:33:17.921Z,99.90
2018-04-06T20:35:45.487Z,99.90
2018-04-06T20:38:13.016Z,99.90
2018-04-06T20:40:41.360Z,99.90
2018-04-06T20:43:08.991Z,99.90
2018-04-06T20:45:36.548Z,99.90
2018-04-06T20:48:04.100Z,99.90
2018-04-06T20:50:31.648Z,99.90
2018-04-06T20:52:59.208Z,99.90
2018-04-06T20:55:26.800Z,99.90
2018-04-06T20:57:54.331Z,99.90
2018-04-06T21:00:21.901Z,99.90
2018-04-06T21:02:49.443Z,99.90
2018-04-06T21:05:17.765Z,99.90
2018-04-06T21:07:45.320Z,99.90
2018-04-06T21:10:12.880Z,99.90
2018-04-06T21:12:40.428Z,99.90
2018-04-06T21:15:07.987Z,99.90
2018-04-06T21:17:35.543Z,99.90
2018-04-06T21:20:03.074Z,99.90
2018-04-06T21:22:31.403Z,99.90
2018-04-06T21:25:00.471Z,99.90
2018-04-06T21:27:28.057Z,99.90
2018-04-06T21:29:55.604Z,99.90
2018-04-06T21:32:23.201Z,99.90
2018-04-06T21:34:50.730Z,99.90
2018-04-06T21:37:18.284Z,99.90
2018-04-06T21:39:45.815Z,99.90
2018-04-06T21:42:13.352Z,99.90
2018-04-06T21:44:40.911Z,99.90
2018-04-06T21:47:08.434Z,99.90
2018-04-06T21:49:35.987Z,99.90
2018-04-06T21:52:03.520Z,99.90
2018-04-06T21:54:31.080Z,99.90
2018-04-06T21:56:58.615Z,99.90
2018-04-06T21:59:26.937Z,99.90
2018-04-06T22:01:54.469Z,99.90
2018-04-06T22:04:22.840Z,99.90
2018-04-06T22:06:51.157Z,99.90
2018-04-06T22:09:18.729Z,99.90
2018-04-06T22:11:46.258Z,99.90
2018-04-06T22:14:13.832Z,99.90
2018-04-06T22:16:41.370Z,99.90
2018-04-06T22:19:08.937Z,99.90
2018-04-06T22:21:36.496Z,99.90
2018-04-06T22:24:04.022Z,99.90
2018-04-06T22:26:31.741Z,99.90
2018-04-06T22:28:59.287Z,99.90
2018-04-06T22:31:26.846Z,99.90
2018-04-06T22:33:54.386Z,99.90
2018-04-06T22:36:22.719Z,99.90
2018-04-06T22:38:50.257Z,99.90
2018-04-06T22:41:17.797Z,99.90
2018-04-06T22:43:45.366Z,99.90
2018-04-06T22:46:12.893Z,99.90
2018-04-06T22:48:41.232Z,99.90
2018-04-06T22:51:08.780Z,99.90
2018-04-06T22:53:36.329Z,99.90
2018-04-06T22:56:03.854Z,99.90
2018-04-06T22:58:32.165Z,99.90
2018-04-06T23:00:59.724Z,99.90
2018-04-06T23:03:27.276Z,99.90
2018-04-06T23:05:54.936Z,99.90
2018-04-06T23:08:22.503Z,99.90
2018-04-06T23:10:50.024Z,99.90
2018-04-06T23:13:18.320Z,99.90
2018-04-06T23:15:46.644Z,99.90
2018-04-06T23:18:14.191Z,99.90
2018-04-06T23:20:41.772Z,99.90
2018-04-06T23:23:09.305Z,99.90
2018-04-06T23:25:36.849Z,99.90
2018-04-06T23:28:04.425Z,99.90
2018-04-06T23:30:31.961Z,99.90
2018-04-06T23:32:59.530Z,99.90
2018-04-06T23:35:27.066Z,99.90
2018-04-06T23:37:55.375Z,99.90
2018-04-06T23:40:22.946Z,99.90
2018-04-06T23:42:50.508Z,99.90
2018-04-06T23:45:18.054Z,99.90
2018-04-06T23:47:45.606Z,99.90
2018-04-06T23:50:13.160Z,99.90
2018-04-06T23:52:40.741Z,99.90
2018-04-06T23:55:08.316Z,99.90
2018-04-06T23:57:35.867Z,99.90
